sensor_id;sensor_type;location;lat;lon;timestamp;P1;durP1;ratioP1;P2;durP2;ratioP2
9422;SDS011;4750;49.506;10.400;2022-10-16T00:02:14;2.93;;;1.00;;
9422;SDS011;4750;49.506;10.400;2022-10-16T00:04:58;2.97;;;0.80;;
9422;SDS011;4750;49.506;10.400;2022-10-16T00:07:42;0.83;;;0.80;;
9422;SDS011;4750;49.506;10.400;2022-10-16T00:10:26;1.97;;;1.20;;
9422;SDS011;4750;49.506;10.400;2022-10-16T00:13:10;1.47;;;1.00;;
9422;SDS011;4750;49.506;10.400;2022-10-16T00:15:55;2.27;;;0.77;;
9422;SDS011;4750;49.506;10.400;2022-10-16T00:18:40;0.70;;;0.70;;
9422;SDS011;4750;49.506;10.400;2022-10-16T00:21:26;0.90;;;0.90;;
9422;SDS011;4750;49.506;10.400;2022-10-16T00:24:11;3.40;;;1.00;;
9422;SDS011;4750;49.506;10.400;2022-10-16T00:26:56;2.97;;;1.23;;
9422;SDS011;4750;49.506;10.400;2022-10-16T00:29:39;1.27;;;0.73;;
9422;SDS011;4750;49.506;10.400;2022-10-16T00:32:24;0.83;;;0.83;;
9422;SDS011;4750;49.506;10.400;2022-10-16T00:35:07;3.07;;;0.93;;
9422;SDS011;4750;49.506;10.400;2022-10-16T00:37:52;1.37;;;0.90;;
9422;SDS011;4750;49.506;10.400;2022-10-16T00:40:36;4.40;;;0.83;;
9422;SDS011;4750;49.506;10.400;2022-10-16T00:43:33;1.57;;;1.10;;
9422;SDS011;4750;49.506;10.400;2022-10-16T00:46:20;1.07;;;0.90;;
9422;SDS011;4750;49.506;10.400;2022-10-16T00:49:08;1.13;;;0.83;;
9422;SDS011;4750;49.506;10.400;2022-10-16T00:51:54;1.63;;;0.70;;
9422;SDS011;4750;49.506;10.400;2022-10-16T00:54:39;1.07;;;0.83;;
9422;SDS011;4750;49.506;10.400;2022-10-16T00:57:23;1.00;;;0.80;;
9422;SDS011;4750;49.506;10.400;2022-10-16T01:00:08;1.00;;;0.77;;
9422;SDS011;4750;49.506;10.400;2022-10-16T01:02:55;4.63;;;1.00;;
9422;SDS011;4750;49.506;10.400;2022-10-16T01:05:45;4.07;;;1.27;;
9422;SDS011;4750;49.506;10.400;2022-10-16T01:08:58;4.33;;;0.80;;
9422;SDS011;4750;49.506;10.400;2022-10-16T01:12:05;2.30;;;0.80;;
9422;SDS011;4750;49.506;10.400;2022-10-16T01:18:17;0.90;;;0.90;;
9422;SDS011;4750;49.506;10.400;2022-10-16T01:21:01;3.03;;;1.10;;
9422;SDS011;4750;49.506;10.400;2022-10-16T01:23:50;7.50;;;0.90;;
9422;SDS011;4750;49.506;10.400;2022-10-16T01:33:00;0.87;;;0.83;;
9422;SDS011;4750;49.506;10.400;2022-10-16T01:35:51;1.50;;;1.20;;
9422;SDS011;4750;49.506;10.400;2022-10-16T01:38:39;2.07;;;1.03;;
9422;SDS011;4750;49.506;10.400;2022-10-16T01:41:28;2.87;;;0.87;;
9422;SDS011;4750;49.506;10.400;2022-10-16T01:44:19;2.53;;;1.33;;
9422;SDS011;4750;49.506;10.400;2022-10-16T01:47:07;1.27;;;1.17;;
9422;SDS011;4750;49.506;10.400;2022-10-16T01:49:54;0.97;;;0.97;;
9422;SDS011;4750;49.506;10.400;2022-10-16T01:52:42;2.40;;;1.10;;
9422;SDS011;4750;49.506;10.400;2022-10-16T01:55:30;2.50;;;1.27;;
9422;SDS011;4750;49.506;10.400;2022-10-16T01:58:18;1.80;;;1.00;;
9422;SDS011;4750;49.506;10.400;2022-10-16T02:01:02;2.67;;;1.10;;
9422;SDS011;4750;49.506;10.400;2022-10-16T02:03:49;1.50;;;0.80;;
9422;SDS011;4750;49.506;10.400;2022-10-16T02:06:36;5.63;;;1.00;;
9422;SDS011;4750;49.506;10.400;2022-10-16T02:09:20;1.73;;;0.90;;
9422;SDS011;4750;49.506;10.400;2022-10-16T02:12:10;4.10;;;1.07;;
9422;SDS011;4750;49.506;10.400;2022-10-16T02:14:59;2.10;;;0.90;;
9422;SDS011;4750;49.506;10.400;2022-10-16T02:17:44;1.07;;;0.90;;
9422;SDS011;4750;49.506;10.400;2022-10-16T02:20:28;5.00;;;1.33;;
9422;SDS011;4750;49.506;10.400;2022-10-16T02:23:19;1.03;;;1.00;;
9422;SDS011;4750;49.506;10.400;2022-10-16T02:26:12;1.23;;;0.90;;
9422;SDS011;4750;49.506;10.400;2022-10-16T02:29:03;2.97;;;1.00;;
9422;SDS011;4750;49.506;10.400;2022-10-16T02:31:54;3.40;;;1.40;;
9422;SDS011;4750;49.506;10.400;2022-10-16T02:34:42;0.70;;;0.70;;
9422;SDS011;4750;49.506;10.400;2022-10-16T02:37:28;0.97;;;0.90;;
9422;SDS011;4750;49.506;10.400;2022-10-16T02:40:13;1.93;;;0.90;;
9422;SDS011;4750;49.506;10.400;2022-10-16T02:42:57;2.70;;;1.00;;
9422;SDS011;4750;49.506;10.400;2022-10-16T02:45:42;1.00;;;0.90;;
9422;SDS011;4750;49.506;10.400;2022-10-16T02:48:26;1.40;;;1.10;;
9422;SDS011;4750;49.506;10.400;2022-10-16T02:51:10;1.00;;;0.90;;
9422;SDS011;4750;49.506;10.400;2022-10-16T02:53:54;0.93;;;0.90;;
9422;SDS011;4750;49.506;10.400;2022-10-16T02:56:38;2.20;;;1.00;;
9422;SDS011;4750;49.506;10.400;2022-10-16T02:59:22;5.97;;;1.23;;
9422;SDS011;4750;49.506;10.400;2022-10-16T03:02:06;1.53;;;1.27;;
9422;SDS011;4750;49.506;10.400;2022-10-16T03:04:50;2.20;;;1.00;;
9422;SDS011;4750;49.506;10.400;2022-10-16T03:07:34;2.33;;;1.20;;
9422;SDS011;4750;49.506;10.400;2022-10-16T03:10:18;0.97;;;0.93;;
9422;SDS011;4750;49.506;10.400;2022-10-16T03:13:02;3.03;;;1.10;;
9422;SDS011;4750;49.506;10.400;2022-10-16T03:15:46;1.63;;;1.00;;
9422;SDS011;4750;49.506;10.400;2022-10-16T03:18:31;1.60;;;1.30;;
9422;SDS011;4750;49.506;10.400;2022-10-16T03:21:15;2.10;;;1.37;;
9422;SDS011;4750;49.506;10.400;2022-10-16T03:23:59;6.10;;;1.67;;
9422;SDS011;4750;49.506;10.400;2022-10-16T03:26:43;1.27;;;1.17;;
9422;SDS011;4750;49.506;10.400;2022-10-16T03:29:27;3.73;;;1.40;;
9422;SDS011;4750;49.506;10.400;2022-10-16T03:32:13;2.43;;;1.13;;
9422;SDS011;4750;49.506;10.400;2022-10-16T03:34:57;1.77;;;1.37;;
9422;SDS011;4750;49.506;10.400;2022-10-16T03:37:41;2.37;;;1.50;;
9422;SDS011;4750;49.506;10.400;2022-10-16T03:40:25;1.30;;;1.20;;
9422;SDS011;4750;49.506;10.400;2022-10-16T03:43:08;1.90;;;1.27;;
9422;SDS011;4750;49.506;10.400;2022-10-16T03:45:53;5.13;;;1.20;;
9422;SDS011;4750;49.506;10.400;2022-10-16T03:48:36;4.60;;;1.60;;
9422;SDS011;4750;49.506;10.400;2022-10-16T03:51:20;3.23;;;1.17;;
9422;SDS011;4750;49.506;10.400;2022-10-16T03:54:05;1.10;;;1.00;;
9422;SDS011;4750;49.506;10.400;2022-10-16T03:56:49;1.93;;;1.03;;
9422;SDS011;4750;49.506;10.400;2022-10-16T03:59:33;1.00;;;1.00;;
9422;SDS011;4750;49.506;10.400;2022-10-16T04:02:17;2.43;;;1.20;;
9422;SDS011;4750;49.506;10.400;2022-10-16T04:05:02;6.60;;;1.40;;
9422;SDS011;4750;49.506;10.400;2022-10-16T04:07:46;2.00;;;1.47;;
9422;SDS011;4750;49.506;10.400;2022-10-16T04:10:30;3.23;;;1.33;;
9422;SDS011;4750;49.506;10.400;2022-10-16T04:13:15;1.73;;;1.10;;
9422;SDS011;4750;49.506;10.400;2022-10-16T04:15:58;1.90;;;1.17;;
9422;SDS011;4750;49.506;10.400;2022-10-16T04:18:43;4.20;;;1.20;;
9422;SDS011;4750;49.506;10.400;2022-10-16T04:21:27;5.10;;;1.13;;
9422;SDS011;4750;49.506;10.400;2022-10-16T04:24:11;4.30;;;1.00;;
9422;SDS011;4750;49.506;10.400;2022-10-16T04:26:55;1.60;;;1.20;;
9422;SDS011;4750;49.506;10.400;2022-10-16T04:29:40;4.30;;;1.30;;
9422;SDS011;4750;49.506;10.400;2022-10-16T04:32:23;3.70;;;1.20;;
9422;SDS011;4750;49.506;10.400;2022-10-16T04:35:08;1.73;;;1.03;;
9422;SDS011;4750;49.506;10.400;2022-10-16T04:37:52;1.70;;;1.30;;
9422;SDS011;4750;49.506;10.400;2022-10-16T04:40:36;2.63;;;1.13;;
9422;SDS011;4750;49.506;10.400;2022-10-16T04:43:20;7.03;;;1.20;;
9422;SDS011;4750;49.506;10.400;2022-10-16T04:46:05;1.53;;;1.10;;
9422;SDS011;4750;49.506;10.400;2022-10-16T04:48:49;1.00;;;1.00;;
9422;SDS011;4750;49.506;10.400;2022-10-16T04:51:32;2.30;;;1.20;;
9422;SDS011;4750;49.506;10.400;2022-10-16T04:54:16;5.70;;;1.40;;
9422;SDS011;4750;49.506;10.400;2022-10-16T04:57:00;1.77;;;1.17;;
9422;SDS011;4750;49.506;10.400;2022-10-16T04:59:44;4.27;;;1.80;;
9422;SDS011;4750;49.506;10.400;2022-10-16T05:02:29;1.70;;;1.20;;
9422;SDS011;4750;49.506;10.400;2022-10-16T05:05:13;4.73;;;1.30;;
9422;SDS011;4750;49.506;10.400;2022-10-16T05:07:57;1.80;;;1.07;;
9422;SDS011;4750;49.506;10.400;2022-10-16T05:10:42;3.63;;;1.50;;
9422;SDS011;4750;49.506;10.400;2022-10-16T05:13:27;2.43;;;1.43;;
9422;SDS011;4750;49.506;10.400;2022-10-16T05:16:11;4.43;;;1.23;;
9422;SDS011;4750;49.506;10.400;2022-10-16T05:18:55;3.70;;;1.60;;
9422;SDS011;4750;49.506;10.400;2022-10-16T05:21:39;2.37;;;1.20;;
9422;SDS011;4750;49.506;10.400;2022-10-16T05:24:23;5.80;;;1.53;;
9422;SDS011;4750;49.506;10.400;2022-10-16T05:27:07;3.57;;;1.20;;
9422;SDS011;4750;49.506;10.400;2022-10-16T05:29:51;1.40;;;1.30;;
9422;SDS011;4750;49.506;10.400;2022-10-16T05:32:34;1.40;;;1.30;;
9422;SDS011;4750;49.506;10.400;2022-10-16T05:35:19;2.13;;;1.60;;
9422;SDS011;4750;49.506;10.400;2022-10-16T05:38:03;4.97;;;1.93;;
9422;SDS011;4750;49.506;10.400;2022-10-16T05:40:51;5.07;;;1.70;;
9422;SDS011;4750;49.506;10.400;2022-10-16T05:43:38;1.67;;;1.57;;
9422;SDS011;4750;49.506;10.400;2022-10-16T05:46:22;2.13;;;1.40;;
9422;SDS011;4750;49.506;10.400;2022-10-16T05:49:06;2.90;;;1.40;;
9422;SDS011;4750;49.506;10.400;2022-10-16T05:51:50;3.90;;;1.50;;
9422;SDS011;4750;49.506;10.400;2022-10-16T05:54:34;1.73;;;1.20;;
9422;SDS011;4750;49.506;10.400;2022-10-16T05:57:18;3.70;;;1.50;;
9422;SDS011;4750;49.506;10.400;2022-10-16T06:00:02;2.83;;;1.70;;
9422;SDS011;4750;49.506;10.400;2022-10-16T06:02:56;2.10;;;1.60;;
9422;SDS011;4750;49.506;10.400;2022-10-16T06:05:41;5.70;;;1.30;;
9422;SDS011;4750;49.506;10.400;2022-10-16T06:08:26;3.37;;;1.17;;
9422;SDS011;4750;49.506;10.400;2022-10-16T06:11:11;3.90;;;1.50;;
9422;SDS011;4750;49.506;10.400;2022-10-16T06:14:00;1.70;;;1.40;;
9422;SDS011;4750;49.506;10.400;2022-10-16T06:16:50;3.20;;;1.50;;
9422;SDS011;4750;49.506;10.400;2022-10-16T06:19:34;3.23;;;1.67;;
9422;SDS011;4750;49.506;10.400;2022-10-16T06:22:17;3.50;;;1.13;;
9422;SDS011;4750;49.506;10.400;2022-10-16T06:25:01;4.87;;;1.57;;
9422;SDS011;4750;49.506;10.400;2022-10-16T06:27:46;3.63;;;1.63;;
9422;SDS011;4750;49.506;10.400;2022-10-16T06:30:30;3.90;;;1.50;;
9422;SDS011;4750;49.506;10.400;2022-10-16T06:33:14;1.60;;;1.50;;
9422;SDS011;4750;49.506;10.400;2022-10-16T06:38:47;4.30;;;1.40;;
9422;SDS011;4750;49.506;10.400;2022-10-16T06:41:31;3.83;;;1.37;;
9422;SDS011;4750;49.506;10.400;2022-10-16T06:44:20;1.40;;;1.30;;
9422;SDS011;4750;49.506;10.400;2022-10-16T06:47:04;3.87;;;1.77;;
9422;SDS011;4750;49.506;10.400;2022-10-16T06:49:48;3.87;;;1.60;;
9422;SDS011;4750;49.506;10.400;2022-10-16T06:52:32;3.77;;;1.33;;
9422;SDS011;4750;49.506;10.400;2022-10-16T06:55:17;2.47;;;1.23;;
9422;SDS011;4750;49.506;10.400;2022-10-16T06:58:01;3.43;;;1.40;;
9422;SDS011;4750;49.506;10.400;2022-10-16T07:00:45;3.60;;;1.30;;
9422;SDS011;4750;49.506;10.400;2022-10-16T07:03:29;3.80;;;1.30;;
9422;SDS011;4750;49.506;10.400;2022-10-16T07:06:14;3.27;;;1.30;;
9422;SDS011;4750;49.506;10.400;2022-10-16T07:09:02;2.63;;;1.10;;
9422;SDS011;4750;49.506;10.400;2022-10-16T07:11:48;2.00;;;1.30;;
9422;SDS011;4750;49.506;10.400;2022-10-16T07:14:33;3.53;;;1.37;;
9422;SDS011;4750;49.506;10.400;2022-10-16T07:17:17;2.50;;;1.30;;
9422;SDS011;4750;49.506;10.400;2022-10-16T07:20:02;1.83;;;1.33;;
9422;SDS011;4750;49.506;10.400;2022-10-16T07:22:46;1.97;;;1.33;;
9422;SDS011;4750;49.506;10.400;2022-10-16T07:25:30;3.83;;;1.20;;
9422;SDS011;4750;49.506;10.400;2022-10-16T07:28:14;2.37;;;1.27;;
9422;SDS011;4750;49.506;10.400;2022-10-16T07:31:01;2.80;;;1.20;;
9422;SDS011;4750;49.506;10.400;2022-10-16T07:33:51;3.67;;;1.30;;
9422;SDS011;4750;49.506;10.400;2022-10-16T07:36:35;3.90;;;1.57;;
9422;SDS011;4750;49.506;10.400;2022-10-16T07:39:19;4.43;;;1.43;;
9422;SDS011;4750;49.506;10.400;2022-10-16T07:42:03;1.70;;;1.30;;
9422;SDS011;4750;49.506;10.400;2022-10-16T07:44:47;1.33;;;1.10;;
9422;SDS011;4750;49.506;10.400;2022-10-16T07:47:31;1.20;;;1.10;;
9422;SDS011;4750;49.506;10.400;2022-10-16T07:50:15;12.37;;;1.37;;
9422;SDS011;4750;49.506;10.400;2022-10-16T07:52:59;1.10;;;1.00;;
9422;SDS011;4750;49.506;10.400;2022-10-16T07:55:43;2.17;;;1.10;;
9422;SDS011;4750;49.506;10.400;2022-10-16T07:58:28;1.00;;;0.90;;
9422;SDS011;4750;49.506;10.400;2022-10-16T08:01:13;1.30;;;1.20;;
9422;SDS011;4750;49.506;10.400;2022-10-16T08:03:58;2.10;;;1.10;;
9422;SDS011;4750;49.506;10.400;2022-10-16T08:06:41;2.40;;;1.20;;
9422;SDS011;4750;49.506;10.400;2022-10-16T08:09:25;5.77;;;2.03;;
9422;SDS011;4750;49.506;10.400;2022-10-16T08:12:09;7.13;;;5.87;;
9422;SDS011;4750;49.506;10.400;2022-10-16T08:14:54;5.27;;;4.20;;
9422;SDS011;4750;49.506;10.400;2022-10-16T08:17:38;6.17;;;2.33;;
9422;SDS011;4750;49.506;10.400;2022-10-16T08:20:22;4.37;;;1.43;;
9422;SDS011;4750;49.506;10.400;2022-10-16T08:23:06;7.00;;;1.30;;
9422;SDS011;4750;49.506;10.400;2022-10-16T08:25:53;1.40;;;1.30;;
9422;SDS011;4750;49.506;10.400;2022-10-16T08:28:38;1.60;;;1.23;;
9422;SDS011;4750;49.506;10.400;2022-10-16T08:31:22;1.33;;;1.03;;
9422;SDS011;4750;49.506;10.400;2022-10-16T08:34:07;1.53;;;1.00;;
9422;SDS011;4750;49.506;10.400;2022-10-16T08:36:52;5.87;;;1.20;;
9422;SDS011;4750;49.506;10.400;2022-10-16T08:39:37;0.90;;;0.90;;
9422;SDS011;4750;49.506;10.400;2022-10-16T08:42:25;3.60;;;1.30;;
9422;SDS011;4750;49.506;10.400;2022-10-16T08:48:20;1.30;;;1.20;;
9422;SDS011;4750;49.506;10.400;2022-10-16T08:51:10;2.93;;;1.10;;
9422;SDS011;4750;49.506;10.400;2022-10-16T08:54:05;2.30;;;1.13;;
9422;SDS011;4750;49.506;10.400;2022-10-16T08:57:09;1.90;;;1.30;;
9422;SDS011;4750;49.506;10.400;2022-10-16T08:59:57;1.50;;;1.07;;
9422;SDS011;4750;49.506;10.400;2022-10-16T09:03:03;2.27;;;1.53;;
9422;SDS011;4750;49.506;10.400;2022-10-16T09:06:07;1.30;;;0.90;;
9422;SDS011;4750;49.506;10.400;2022-10-16T09:23:34;5.23;;;1.50;;
9422;SDS011;4750;49.506;10.400;2022-10-16T09:26:20;2.90;;;1.20;;
9422;SDS011;4750;49.506;10.400;2022-10-16T09:29:05;2.53;;;1.37;;
9422;SDS011;4750;49.506;10.400;2022-10-16T09:31:49;2.23;;;1.13;;
9422;SDS011;4750;49.506;10.400;2022-10-16T09:34:35;3.33;;;1.23;;
9422;SDS011;4750;49.506;10.400;2022-10-16T09:37:23;3.83;;;1.33;;
9422;SDS011;4750;49.506;10.400;2022-10-16T09:40:26;2.73;;;1.00;;
9422;SDS011;4750;49.506;10.400;2022-10-16T09:46:05;1.30;;;1.20;;
9422;SDS011;4750;49.506;10.400;2022-10-16T09:52:12;2.17;;;1.20;;
9422;SDS011;4750;49.506;10.400;2022-10-16T09:54:58;1.57;;;1.40;;
9422;SDS011;4750;49.506;10.400;2022-10-16T09:57:49;4.03;;;1.20;;
9422;SDS011;4750;49.506;10.400;2022-10-16T10:00:36;8.03;;;1.37;;
9422;SDS011;4750;49.506;10.400;2022-10-16T10:03:39;2.23;;;1.77;;
9422;SDS011;4750;49.506;10.400;2022-10-16T10:06:25;2.37;;;2.17;;
9422;SDS011;4750;49.506;10.400;2022-10-16T10:09:37;4.00;;;2.60;;
9422;SDS011;4750;49.506;10.400;2022-10-16T10:12:29;3.97;;;1.40;;
9422;SDS011;4750;49.506;10.400;2022-10-16T10:15:24;3.70;;;1.50;;
9422;SDS011;4750;49.506;10.400;2022-10-16T10:18:15;5.13;;;1.33;;
9422;SDS011;4750;49.506;10.400;2022-10-16T10:21:02;5.87;;;1.47;;
9422;SDS011;4750;49.506;10.400;2022-10-16T10:23:54;2.83;;;2.10;;
9422;SDS011;4750;49.506;10.400;2022-10-16T10:26:45;3.30;;;1.30;;
9422;SDS011;4750;49.506;10.400;2022-10-16T10:29:57;4.10;;;1.60;;
9422;SDS011;4750;49.506;10.400;2022-10-16T10:36:34;3.13;;;1.60;;
9422;SDS011;4750;49.506;10.400;2022-10-16T10:39:25;3.60;;;1.37;;
9422;SDS011;4750;49.506;10.400;2022-10-16T10:42:25;2.30;;;1.20;;
9422;SDS011;4750;49.506;10.400;2022-10-16T10:48:21;4.57;;;1.10;;
9422;SDS011;4750;49.506;10.400;2022-10-16T10:51:16;1.73;;;1.50;;
9422;SDS011;4750;49.506;10.400;2022-10-16T10:54:16;2.40;;;1.60;;
9422;SDS011;4750;49.506;10.400;2022-10-16T10:57:32;3.20;;;1.50;;
9422;SDS011;4750;49.506;10.400;2022-10-16T11:00:46;4.97;;;1.40;;
9422;SDS011;4750;49.506;10.400;2022-10-16T11:07:00;5.20;;;1.60;;
9422;SDS011;4750;49.506;10.400;2022-10-16T11:09:48;2.80;;;1.60;;
9422;SDS011;4750;49.506;10.400;2022-10-16T11:12:38;2.23;;;1.53;;
9422;SDS011;4750;49.506;10.400;2022-10-16T11:15:31;2.70;;;1.20;;
9422;SDS011;4750;49.506;10.400;2022-10-16T11:18:21;2.40;;;1.30;;
9422;SDS011;4750;49.506;10.400;2022-10-16T11:21:10;3.80;;;1.30;;
9422;SDS011;4750;49.506;10.400;2022-10-16T11:24:03;4.27;;;1.40;;
9422;SDS011;4750;49.506;10.400;2022-10-16T11:26:58;2.27;;;1.07;;
9422;SDS011;4750;49.506;10.400;2022-10-16T11:29:53;3.23;;;1.10;;
9422;SDS011;4750;49.506;10.400;2022-10-16T11:35:54;1.73;;;1.10;;
9422;SDS011;4750;49.506;10.400;2022-10-16T11:39:04;1.93;;;1.27;;
9422;SDS011;4750;49.506;10.400;2022-10-16T11:42:03;2.30;;;1.07;;
9422;SDS011;4750;49.506;10.400;2022-10-16T11:44:57;3.50;;;1.20;;
9422;SDS011;4750;49.506;10.400;2022-10-16T11:53:40;1.37;;;1.00;;
9422;SDS011;4750;49.506;10.400;2022-10-16T11:56:48;1.30;;;1.03;;
9422;SDS011;4750;49.506;10.400;2022-10-16T11:59:58;1.20;;;0.80;;
9422;SDS011;4750;49.506;10.400;2022-10-16T12:03:14;1.10;;;1.00;;
9422;SDS011;4750;49.506;10.400;2022-10-16T12:08:59;2.47;;;1.10;;
9422;SDS011;4750;49.506;10.400;2022-10-16T12:11:44;1.30;;;0.90;;
9422;SDS011;4750;49.506;10.400;2022-10-16T12:14:36;1.20;;;1.10;;
9422;SDS011;4750;49.506;10.400;2022-10-16T12:17:23;4.23;;;1.43;;
9422;SDS011;4750;49.506;10.400;2022-10-16T12:22:56;1.77;;;1.00;;
9422;SDS011;4750;49.506;10.400;2022-10-16T12:25:42;1.33;;;1.20;;
9422;SDS011;4750;49.506;10.400;2022-10-16T12:28:32;2.57;;;1.20;;
9422;SDS011;4750;49.506;10.400;2022-10-16T12:31:17;2.83;;;0.97;;
9422;SDS011;4750;49.506;10.400;2022-10-16T12:34:01;5.23;;;1.30;;
9422;SDS011;4750;49.506;10.400;2022-10-16T12:36:46;1.60;;;1.00;;
9422;SDS011;4750;49.506;10.400;2022-10-16T12:39:31;2.10;;;0.87;;
9422;SDS011;4750;49.506;10.400;2022-10-16T12:45:22;0.83;;;0.83;;
9422;SDS011;4750;49.506;10.400;2022-10-16T12:48:18;0.80;;;0.80;;
9422;SDS011;4750;49.506;10.400;2022-10-16T12:54:18;0.83;;;0.80;;
9422;SDS011;4750;49.506;10.400;2022-10-16T13:09:52;0.70;;;0.70;;
9422;SDS011;4750;49.506;10.400;2022-10-16T13:19:06;3.03;;;1.03;;
9422;SDS011;4750;49.506;10.400;2022-10-16T13:22:03;2.30;;;0.90;;
9422;SDS011;4750;49.506;10.400;2022-10-16T13:27:55;3.80;;;1.63;;
9422;SDS011;4750;49.506;10.400;2022-10-16T13:30:43;1.00;;;0.90;;
9422;SDS011;4750;49.506;10.400;2022-10-16T13:33:36;2.10;;;1.00;;
9422;SDS011;4750;49.506;10.400;2022-10-16T13:36:25;3.77;;;1.10;;
9422;SDS011;4750;49.506;10.400;2022-10-16T13:39:11;1.63;;;0.90;;
9422;SDS011;4750;49.506;10.400;2022-10-16T13:42:22;2.83;;;1.07;;
9422;SDS011;4750;49.506;10.400;2022-10-16T13:45:17;1.00;;;0.97;;
9422;SDS011;4750;49.506;10.400;2022-10-16T13:48:06;1.17;;;1.07;;
9422;SDS011;4750;49.506;10.400;2022-10-16T13:51:14;1.93;;;0.90;;
9422;SDS011;4750;49.506;10.400;2022-10-16T13:54:00;3.30;;;0.80;;
9422;SDS011;4750;49.506;10.400;2022-10-16T13:56:43;2.20;;;0.97;;
9422;SDS011;4750;49.506;10.400;2022-10-16T13:59:34;1.87;;;1.20;;
9422;SDS011;4750;49.506;10.400;2022-10-16T14:02:29;0.80;;;0.80;;
9422;SDS011;4750;49.506;10.400;2022-10-16T14:05:18;1.33;;;1.10;;
9422;SDS011;4750;49.506;10.400;2022-10-16T14:08:02;2.07;;;0.97;;
9422;SDS011;4750;49.506;10.400;2022-10-16T14:10:50;2.20;;;0.90;;
9422;SDS011;4750;49.506;10.400;2022-10-16T14:13:37;3.47;;;1.20;;
9422;SDS011;4750;49.506;10.400;2022-10-16T14:16:25;0.90;;;0.90;;
9422;SDS011;4750;49.506;10.400;2022-10-16T14:19:25;1.00;;;0.90;;
9422;SDS011;4750;49.506;10.400;2022-10-16T14:22:26;3.33;;;0.90;;
9422;SDS011;4750;49.506;10.400;2022-10-16T14:28:15;2.93;;;0.70;;
9422;SDS011;4750;49.506;10.400;2022-10-16T14:31:01;1.90;;;1.13;;
9422;SDS011;4750;49.506;10.400;2022-10-16T14:34:00;1.27;;;1.00;;
9422;SDS011;4750;49.506;10.400;2022-10-16T14:36:44;1.43;;;0.93;;
9422;SDS011;4750;49.506;10.400;2022-10-16T14:39:29;1.37;;;1.27;;
9422;SDS011;4750;49.506;10.400;2022-10-16T14:42:16;1.37;;;0.97;;
9422;SDS011;4750;49.506;10.400;2022-10-16T14:45:07;1.27;;;1.07;;
9422;SDS011;4750;49.506;10.400;2022-10-16T14:47:54;0.83;;;0.83;;
9422;SDS011;4750;49.506;10.400;2022-10-16T14:50:41;0.80;;;0.80;;
9422;SDS011;4750;49.506;10.400;2022-10-16T14:53:25;1.53;;;1.00;;
9422;SDS011;4750;49.506;10.400;2022-10-16T14:56:15;0.80;;;0.80;;
9422;SDS011;4750;49.506;10.400;2022-10-16T14:59:02;0.77;;;0.67;;
9422;SDS011;4750;49.506;10.400;2022-10-16T15:01:47;2.90;;;0.90;;
9422;SDS011;4750;49.506;10.400;2022-10-16T15:04:31;1.00;;;0.93;;
9422;SDS011;4750;49.506;10.400;2022-10-16T15:07:15;1.33;;;0.90;;
9422;SDS011;4750;49.506;10.400;2022-10-16T15:09:59;1.27;;;1.17;;
9422;SDS011;4750;49.506;10.400;2022-10-16T15:12:43;2.77;;;1.20;;
9422;SDS011;4750;49.506;10.400;2022-10-16T15:15:37;4.47;;;0.87;;
9422;SDS011;4750;49.506;10.400;2022-10-16T15:18:24;3.63;;;1.00;;
9422;SDS011;4750;49.506;10.400;2022-10-16T15:21:12;4.17;;;1.90;;
9422;SDS011;4750;49.506;10.400;2022-10-16T15:24:21;5.27;;;1.97;;
9422;SDS011;4750;49.506;10.400;2022-10-16T15:27:06;1.80;;;1.63;;
9422;SDS011;4750;49.506;10.400;2022-10-16T15:29:50;2.13;;;1.20;;
9422;SDS011;4750;49.506;10.400;2022-10-16T15:32:34;1.20;;;1.10;;
9422;SDS011;4750;49.506;10.400;2022-10-16T15:35:18;1.07;;;0.90;;
9422;SDS011;4750;49.506;10.400;2022-10-16T15:38:02;1.17;;;1.00;;
9422;SDS011;4750;49.506;10.400;2022-10-16T15:40:46;2.60;;;1.10;;
9422;SDS011;4750;49.506;10.400;2022-10-16T15:43:31;1.03;;;0.90;;
9422;SDS011;4750;49.506;10.400;2022-10-16T15:46:17;1.47;;;1.23;;
9422;SDS011;4750;49.506;10.400;2022-10-16T15:49:03;2.40;;;1.03;;
9422;SDS011;4750;49.506;10.400;2022-10-16T15:51:47;1.80;;;1.30;;
9422;SDS011;4750;49.506;10.400;2022-10-16T15:54:31;2.53;;;1.07;;
9422;SDS011;4750;49.506;10.400;2022-10-16T15:57:15;1.10;;;1.10;;
9422;SDS011;4750;49.506;10.400;2022-10-16T16:00:00;1.30;;;1.20;;
9422;SDS011;4750;49.506;10.400;2022-10-16T16:02:48;2.40;;;1.10;;
9422;SDS011;4750;49.506;10.400;2022-10-16T16:05:36;2.83;;;1.37;;
9422;SDS011;4750;49.506;10.400;2022-10-16T16:08:21;1.57;;;1.30;;
9422;SDS011;4750;49.506;10.400;2022-10-16T16:11:06;2.67;;;1.30;;
9422;SDS011;4750;49.506;10.400;2022-10-16T16:13:52;3.57;;;1.40;;
9422;SDS011;4750;49.506;10.400;2022-10-16T16:16:38;5.20;;;1.27;;
9422;SDS011;4750;49.506;10.400;2022-10-16T16:19:22;3.93;;;1.30;;
9422;SDS011;4750;49.506;10.400;2022-10-16T16:22:06;1.97;;;1.20;;
9422;SDS011;4750;49.506;10.400;2022-10-16T16:24:50;3.80;;;1.30;;
9422;SDS011;4750;49.506;10.400;2022-10-16T16:27:34;3.40;;;1.50;;
9422;SDS011;4750;49.506;10.400;2022-10-16T16:30:18;1.30;;;1.20;;
9422;SDS011;4750;49.506;10.400;2022-10-16T16:33:04;2.03;;;1.80;;
9422;SDS011;4750;49.506;10.400;2022-10-16T16:35:48;2.57;;;1.40;;
9422;SDS011;4750;49.506;10.400;2022-10-16T16:38:32;1.90;;;1.70;;
9422;SDS011;4750;49.506;10.400;2022-10-16T16:41:26;6.47;;;2.30;;
9422;SDS011;4750;49.506;10.400;2022-10-16T16:44:12;3.47;;;2.10;;
9422;SDS011;4750;49.506;10.400;2022-10-16T16:46:57;3.87;;;2.20;;
9422;SDS011;4750;49.506;10.400;2022-10-16T16:49:41;9.37;;;7.13;;
9422;SDS011;4750;49.506;10.400;2022-10-16T16:52:25;7.47;;;4.27;;
9422;SDS011;4750;49.506;10.400;2022-10-16T16:55:12;5.80;;;3.80;;
9422;SDS011;4750;49.506;10.400;2022-10-16T16:57:56;5.40;;;4.73;;
9422;SDS011;4750;49.506;10.400;2022-10-16T17:00:47;14.57;;;7.57;;
9422;SDS011;4750;49.506;10.400;2022-10-16T17:03:32;12.93;;;11.00;;
9422;SDS011;4750;49.506;10.400;2022-10-16T17:06:18;22.10;;;15.83;;
9422;SDS011;4750;49.506;10.400;2022-10-16T17:09:04;41.20;;;26.83;;
9422;SDS011;4750;49.506;10.400;2022-10-16T17:11:49;17.47;;;13.20;;
9422;SDS011;4750;49.506;10.400;2022-10-16T17:14:33;31.17;;;20.13;;
9422;SDS011;4750;49.506;10.400;2022-10-16T17:17:17;46.17;;;31.50;;
9422;SDS011;4750;49.506;10.400;2022-10-16T17:20:01;26.37;;;18.20;;
9422;SDS011;4750;49.506;10.400;2022-10-16T17:22:45;19.43;;;11.97;;
9422;SDS011;4750;49.506;10.400;2022-10-16T17:25:29;23.87;;;13.00;;
9422;SDS011;4750;49.506;10.400;2022-10-16T17:28:13;9.67;;;5.97;;
9422;SDS011;4750;49.506;10.400;2022-10-16T17:31:06;5.40;;;3.57;;
9422;SDS011;4750;49.506;10.400;2022-10-16T17:33:50;7.73;;;5.17;;
9422;SDS011;4750;49.506;10.400;2022-10-16T17:36:35;5.57;;;3.30;;
9422;SDS011;4750;49.506;10.400;2022-10-16T17:39:21;4.47;;;2.40;;
9422;SDS011;4750;49.506;10.400;2022-10-16T17:42:05;3.00;;;2.00;;
9422;SDS011;4750;49.506;10.400;2022-10-16T17:44:49;6.43;;;2.00;;
9422;SDS011;4750;49.506;10.400;2022-10-16T17:47:33;5.13;;;2.53;;
9422;SDS011;4750;49.506;10.400;2022-10-16T17:50:17;2.50;;;2.20;;
9422;SDS011;4750;49.506;10.400;2022-10-16T17:53:01;2.20;;;2.00;;
9422;SDS011;4750;49.506;10.400;2022-10-16T17:55:46;10.47;;;2.57;;
9422;SDS011;4750;49.506;10.400;2022-10-16T17:58:29;4.27;;;2.20;;
9422;SDS011;4750;49.506;10.400;2022-10-16T18:01:15;7.33;;;2.60;;
9422;SDS011;4750;49.506;10.400;2022-10-16T18:04:04;3.90;;;2.10;;
9422;SDS011;4750;49.506;10.400;2022-10-16T18:06:51;9.63;;;2.40;;
9422;SDS011;4750;49.506;10.400;2022-10-16T18:09:36;3.50;;;1.90;;
9422;SDS011;4750;49.506;10.400;2022-10-16T18:12:20;2.67;;;2.10;;
9422;SDS011;4750;49.506;10.400;2022-10-16T18:15:04;4.80;;;2.50;;
9422;SDS011;4750;49.506;10.400;2022-10-16T18:17:49;3.37;;;1.60;;
9422;SDS011;4750;49.506;10.400;2022-10-16T18:20:33;2.87;;;1.70;;
9422;SDS011;4750;49.506;10.400;2022-10-16T18:23:17;2.20;;;1.80;;
9422;SDS011;4750;49.506;10.400;2022-10-16T18:26:01;6.73;;;2.30;;
9422;SDS011;4750;49.506;10.400;2022-10-16T18:28:46;2.27;;;1.90;;
9422;SDS011;4750;49.506;10.400;2022-10-16T18:31:30;2.10;;;1.90;;
9422;SDS011;4750;49.506;10.400;2022-10-16T18:34:14;2.53;;;1.90;;
9422;SDS011;4750;49.506;10.400;2022-10-16T18:36:58;2.83;;;1.90;;